Flight Track Log - Related Links

Times and Time Zones

All times are in EDT time to prevent confusion due to time zone crossing. See the SWA3497 flight status page for this flight to view local times or setup timezone preferences in your user account.

Time Position Orientation Groundspeed Altitude Reporting Facility
EDT Latitude Longitude Course Direction KTS MPH feet Rate Location/Type
Wed 12:27:51 PM 41.6225 -87.7900 177° South 293 337 10,400  Level Chicago Center
Wed 12:28:54 PM 41.5306 -87.7600 166° South 337 388 14,500 3,792 Climbing Chicago Center
Wed 12:29:56 PM 41.4369 -87.7317 167° South 341 392 18,300 3,774 Climbing Chicago Center
Wed 12:30:58 PM 41.3394 -87.7100 171° South 351 404 22,300 2,274 Climbing Chicago Center
Wed 12:31:00 PM 41.2910 -87.7167 180° South  Level FlightAware Approximate
Wed 12:32:00 PM 41.2464 -87.6853 169° South 342 394 23,000  Level Chicago Center
Wed 12:33:02 PM 41.1522 -87.6606 169° South 344 396 23,000  Level Chicago Center
Wed 12:34:04 PM 41.0411 -87.6333 170° South 340 391 23,000  Level Chicago Center
Wed 12:35:06 PM 40.9489 -87.6083 168° South 338 389 23,000  Level Chicago Center
Wed 12:36:53 PM 40.7856 -87.5681 169° South 335 386 23,000  Level Indianapolis Center
Wed 12:37:10 PM 40.7661 -87.5617 166° South 334 384 23,000  Level Chicago Center
Wed 12:38:12 PM 40.6756 -87.5392 169° South 333 383 23,000  Level Chicago Center
Wed 12:39:14 PM 40.5856 -87.5172 170° South 330 380 23,000  Level Chicago Center
Wed 12:40:16 PM 40.4797 -87.4903 169° South 326 375 23,000  Level Chicago Center
Wed 12:41:19 PM 40.3906 -87.4681 169° South 325 374 23,000  Level Chicago Center
Wed 12:42:21 PM 40.3039 -87.4500 171° South 333 383 23,000  Level Chicago Center
Wed 12:43:23 PM 40.2019 -87.4061 162° South 337 388 23,000  Level Chicago Center
Wed 12:44:25 PM 40.1181 -87.3428 150° Southeast 343 395 23,000  Level Chicago Center
Wed 12:45:05 PM 40.0603 -87.3011 151° Southeast 346 398 23,000  Level Indianapolis Center
Wed 12:46:07 PM 39.9781 -87.2389 150° Southeast 341 392 23,000  Level Indianapolis Center
Wed 12:47:09 PM 39.8964 -87.1764 150° Southeast 339 390 23,000  Level Indianapolis Center
Wed 12:48:10 PM 39.8150 -87.1156 150° Southeast 337 388 23,000  Level Indianapolis Center
Wed 12:49:12 PM 39.7331 -87.0547 150° Southeast 338 389 23,000  Level Indianapolis Center
Wed 12:50:14 PM 39.6528 -86.9944 150° Southeast 333 383 23,000  Level Indianapolis Center
Wed 12:51:15 PM 39.5603 -86.9258 150° Southeast 328 377 23,000  Level Indianapolis Center
Wed 12:52:17 PM 39.4822 -86.8669 150° Southeast 324 373 23,000  Level Indianapolis Center
Wed 12:53:19 PM 39.4033 -86.8072 150° Southeast 327 376 23,000  Level Indianapolis Center
Wed 12:54:20 PM 39.3231 -86.7489 151° Southeast 329 379 23,000  Level Indianapolis Center
Wed 12:55:22 PM 39.2431 -86.6897 150° Southeast 331 381 23,000 -726 Level Indianapolis Center
Wed 12:56:24 PM 39.1631 -86.6306 150° Southeast 330 380 21,500 -1,548 Descending Indianapolis Center
Wed 12:57:26 PM 39.0883 -86.5761 151° Southeast 312 359 19,800 -1,854 Descending Indianapolis Center
Wed 12:58:27 PM 39.0011 -86.5117 150° Southeast 309 356 17,700 -1,902 Descending Indianapolis Center
Wed 12:59:29 PM 38.9222 -86.4531 150° Southeast 321 369 15,900 -1,790 Descending Indianapolis Center
Wed 01:00:31 PM 38.8450 -86.3978 151° Southeast 319 367 14,000 -1,839 Descending Indianapolis Center
Wed 01:01:33 PM 38.7675 -86.3411 150° Southeast 318 366 12,100 -1,463 Descending Indianapolis Center
Wed 01:02:34 PM 38.6928 -86.2831 149° Southeast 314 361 11,000 -537 Descending Indianapolis Center
Wed 01:03:36 PM 38.6247 -86.2083 139° Southeast 318 366 11,000 -217 Level Indianapolis Center
Wed 01:04:52 PM 38.5328 -86.1114 140° Southeast 304 350 10,500 -545 Descending FAA TRACON SMA TRACON (SMA)
Wed 01:05:15 PM 38.5083 -86.0853 140° Southeast 299 344 10,100 -906 Descending FAA TRACON SMA TRACON (SMA)
Wed 01:05:45 PM 38.4789 -86.0547 141° Southeast 293 337 9,700 -913 Descending FAA TRACON SMA TRACON (SMA)
Wed 01:06:01 PM 38.4592 -86.0344 141° Southeast 294 338 9,400 -1,102 Descending FAA TRACON SMA TRACON (SMA)
Wed 01:06:34 PM 38.4256 -85.9992 141° Southeast 292 336 8,800 -1,038 Descending FAA TRACON SMA TRACON (SMA)
Wed 01:06:53 PM 38.4058 -85.9792 142° Southeast 292 336 8,500 -923 Descending FAA TRACON SMA TRACON (SMA)
Wed 01:07:13 PM 38.3850 -85.9619 147° Southeast 291 335 8,200 -900 Descending FAA TRACON SMA TRACON (SMA)
Wed 01:07:33 PM 38.3636 -85.9447 148° Southeast 293 337 7,900 -1,077 Descending FAA TRACON SMA TRACON (SMA)
Wed 01:07:52 PM 38.3367 -85.9242 149° Southeast 294 338 7,500 -1,050 Descending FAA TRACON SMA TRACON (SMA)
Wed 01:08:13 PM 38.3158 -85.9083 149° Southeast 287 330 7,200 -900 Descending FAA TRACON SMA TRACON (SMA)
Wed 01:08:32 PM 38.2950 -85.8933 151° Southeast 280 322 6,900 -1,050 Descending FAA TRACON SMA TRACON (SMA)
Wed 01:08:53 PM 38.2681 -85.8794 158° South 273 314 6,500 -1,024 Descending FAA TRACON SMA TRACON (SMA)
Wed 01:09:13 PM 38.2464 -85.8694 160° South 269 310 6,200 -769 Descending FAA TRACON SMA TRACON (SMA)
Wed 01:09:32 PM 38.2247 -85.8592 160° South 268 308 6,000 -300 Descending FAA TRACON SMA TRACON (SMA)
Wed 01:09:53 PM 38.1983 -85.8472 160° South 263 303 6,000  Level FAA TRACON SMA TRACON (SMA)
Wed 01:10:13 PM 38.1769 -85.8372 160° South 263 303 6,000  Level FAA TRACON SMA TRACON (SMA)
Wed 01:10:32 PM 38.1569 -85.8275 159° South 253 291 6,000 -150 Level FAA TRACON SMA TRACON (SMA)
Wed 01:10:53 PM 38.1331 -85.8189 164° South 235 270 5,900 -585 Descending FAA TRACON SMA TRACON (SMA)
Wed 01:11:13 PM 38.1142 -85.8136 168° South 226 260 5,600 -769 Descending FAA TRACON SMA TRACON (SMA)
Wed 01:11:32 PM 38.0958 -85.8083 167° South 219 252 5,400 -750 Descending FAA TRACON SMA TRACON (SMA)
Wed 01:11:53 PM 38.0733 -85.8022 168° South 215 247 5,100 -600 Descending FAA TRACON SMA TRACON (SMA)
Wed 01:12:12 PM 38.0564 -85.7975 168° South 207 238 5,000 -150 Descending FAA TRACON SMA TRACON (SMA)
Wed 01:12:33 PM 38.0369 -85.7919 167° South 189 217 5,000  Level FAA TRACON SMA TRACON (SMA)
Wed 01:12:53 PM 38.0222 -85.7881 168° South 178 205 5,000  Level FAA TRACON SMA TRACON (SMA)
Wed 01:13:13 PM 38.0075 -85.7839 167° South 175 201 5,000  Level FAA TRACON SMA TRACON (SMA)
Wed 01:13:32 PM 37.9894 -85.7783 166° South 173 199 5,000  Level FAA TRACON SMA TRACON (SMA)
Wed 01:13:52 PM 37.9750 -85.7739 166° South 173 199 5,000  Level FAA TRACON SMA TRACON (SMA)
Wed 01:14:13 PM 37.9603 -85.7692 166° South 175 201 5,000 -600 Level FAA TRACON SMA TRACON (SMA)
Wed 01:14:32 PM 37.9483 -85.7508 130° Southeast 196 226 4,600 -1,050 Descending FAA TRACON SMA TRACON (SMA)
Wed 01:14:53 PM 37.9492 -85.7275 87° East 211 243 4,300 -750 Descending FAA TRACON SMA TRACON (SMA)
Wed 01:15:12 PM 37.9500 -85.7058 87° East 210 242 4,100 -304 Descending FAA TRACON SMA TRACON (SMA)
Wed 01:16:12 PM 37.9892 -85.6839 24° Northeast 172 198 3,900 -370 Descending FAA TRACON SMA TRACON (SMA)
Wed 01:16:33 PM 38.0069 -85.6894 346° North 168 193 3,600 -900 Descending FAA TRACON SMA TRACON (SMA)
Wed 01:16:52 PM 38.0211 -85.6942 345° North 169 194 3,300 -750 Descending FAA TRACON SMA TRACON (SMA)
Wed 01:17:13 PM 38.0347 -85.6983 346° North 168 193 3,100 -878 Descending FAA TRACON SMA TRACON (SMA)
Wed 01:17:33 PM 38.0517 -85.7042 345° North 162 186 2,700 -1,077 Descending FAA TRACON SMA TRACON (SMA)
Wed 01:17:52 PM 38.0639 -85.7081 346° North 151 174 2,400 -750 Descending FAA TRACON SMA TRACON (SMA)
Wed 01:18:13 PM 38.0744 -85.7117 345° North 135 155 2,200 -571 Descending FAA TRACON SMA TRACON (SMA)

Login

Don't have an account? Register now (free) for customized features, flight alerts, and more!